createdAt,value
2022-08-18T00:02:12.366Z,3.90
2022-08-18T00:04:43.406Z,3.67
2022-08-18T00:07:26.349Z,3.53
2022-08-18T00:09:53.871Z,3.80
2022-08-18T00:12:36.041Z,3.80
2022-08-18T00:15:06.120Z,4.07
2022-08-18T00:17:34.746Z,3.97
2022-08-18T00:20:02.545Z,3.80
2022-08-18T00:22:29.366Z,4.07
2022-08-18T00:24:58.336Z,4.23
2022-08-18T00:27:31.764Z,4.10
2022-08-18T00:30:02.473Z,4.17
2022-08-18T00:32:41.711Z,4.10
2022-08-18T00:35:14.323Z,3.77
2022-08-18T00:37:42.920Z,4.17
2022-08-18T00:40:16.390Z,4.10
2022-08-18T00:42:52.702Z,4.37
2022-08-18T00:45:26.109Z,4.53
2022-08-18T00:47:54.159Z,3.80
2022-08-18T00:50:34.643Z,4.43
2022-08-18T00:53:50.310Z,4.40
2022-08-18T00:56:34.492Z,4.47
2022-08-18T00:59:45.363Z,4.43
2022-08-18T01:02:22.204Z,4.80
2022-08-18T01:05:02.682Z,4.37
2022-08-18T01:07:47.677Z,4.53
2022-08-18T01:10:21.865Z,4.70
2022-08-18T01:12:54.031Z,4.80
2022-08-18T01:15:28.288Z,4.77
2022-08-18T01:18:27.481Z,5.10
2022-08-18T01:21:39.605Z,4.83
2022-08-18T01:24:12.826Z,4.77
2022-08-18T01:26:46.366Z,5.07
2022-08-18T01:29:18.745Z,5.80
2022-08-18T01:31:56.101Z,5.10
2022-08-18T01:34:28.264Z,5.33
2022-08-18T01:36:55.669Z,4.63
2022-08-18T01:41:06.276Z,4.97
2022-08-18T01:42:12.726Z,4.70
2022-08-18T01:44:43.342Z,5.43
2022-08-18T01:47:12.547Z,5.30
2022-08-18T01:49:43.142Z,5.00
2022-08-18T01:52:17.854Z,5.67
2022-08-18T01:54:44.760Z,5.73
2022-08-18T01:57:13.409Z,5.70
2022-08-18T01:59:42.165Z,5.50
2022-08-18T02:02:18.117Z,5.50
2022-08-18T02:04:47.396Z,5.00
2022-08-18T02:07:14.999Z,5.53
2022-08-18T02:09:43.644Z,5.30
2022-08-18T02:12:11.433Z,5.50
2022-08-18T02:14:39.601Z,5.50
2022-08-18T02:17:09.703Z,5.93
2022-08-18T02:19:43.194Z,5.53
2022-08-18T02:22:20.238Z,5.93
2022-08-18T02:24:47.707Z,5.70
2022-08-18T02:27:16.800Z,5.70
2022-08-18T02:29:44.209Z,5.57
2022-08-18T02:32:11.090Z,5.37
2022-08-18T02:34:37.914Z,5.60
2022-08-18T02:37:04.934Z,5.87
2022-08-18T02:39:37.914Z,5.53
2022-08-18T02:42:09.074Z,5.40
2022-08-18T02:44:36.270Z,5.73
2022-08-18T02:47:03.552Z,6.13
2022-08-18T02:49:30.421Z,5.37
2022-08-18T02:51:57.653Z,5.60
2022-08-18T02:54:25.457Z,5.57
2022-08-18T02:56:53.308Z,6.10
2022-08-18T02:59:27.729Z,5.80
2022-08-18T03:01:56.531Z,6.10
2022-08-18T03:04:30.223Z,6.10
2022-08-18T03:07:01.758Z,6.10
2022-08-18T03:09:29.955Z,6.37
2022-08-18T03:11:58.217Z,5.87
2022-08-18T03:14:25.461Z,6.20
2022-08-18T03:16:53.997Z,6.03
2022-08-18T03:19:24.908Z,6.00
2022-08-18T03:21:52.747Z,6.87
2022-08-18T03:24:22.598Z,6.97
2022-08-18T03:26:52.613Z,6.27
2022-08-18T03:29:21.043Z,6.30
2022-08-18T03:31:48.737Z,6.20
2022-08-18T03:34:20.756Z,6.83
2022-08-18T03:36:51.843Z,6.67
2022-08-18T03:39:23.394Z,6.23
2022-08-18T03:41:59.487Z,6.50
2022-08-18T03:44:32.002Z,6.20
2022-08-18T03:47:01.441Z,6.73
2022-08-18T03:49:28.316Z,6.43
2022-08-18T03:51:55.790Z,6.13
2022-08-18T03:54:22.924Z,6.20
2022-08-18T03:56:49.989Z,5.50
2022-08-18T03:59:22.692Z,6.23
2022-08-18T04:01:53.765Z,6.13
2022-08-18T04:04:25.924Z,5.70
2022-08-18T04:06:58.464Z,5.80
2022-08-18T04:09:28.556Z,5.70
2022-08-18T04:11:56.520Z,6.13
2022-08-18T04:14:31.577Z,5.77
2022-08-18T04:16:59.442Z,5.50
2022-08-18T04:19:27.228Z,6.23
2022-08-18T04:21:58.431Z,5.97
2022-08-18T04:24:31.236Z,5.37
2022-08-18T04:27:04.791Z,6.37
2022-08-18T04:29:32.220Z,5.33
2022-08-18T04:32:05.654Z,5.90
2022-08-18T04:34:33.839Z,6.03
2022-08-18T04:37:02.321Z,5.83
2022-08-18T04:39:30.204Z,5.57
2022-08-18T04:41:57.128Z,5.57
2022-08-18T04:44:23.932Z,5.70
2022-08-18T04:46:54.360Z,5.70
2022-08-18T04:49:25.862Z,5.57
2022-08-18T04:52:39.346Z,6.07
2022-08-18T04:55:01.565Z,5.83
2022-08-18T04:57:29.331Z,6.30
2022-08-18T05:00:00.926Z,6.30
2022-08-18T05:02:28.079Z,6.57
2022-08-18T05:04:55.000Z,6.73
2022-08-18T05:07:25.553Z,6.73
2022-08-18T05:09:54.041Z,7.27
2022-08-18T05:12:22.875Z,6.23
2022-08-18T05:14:57.095Z,6.37
2022-08-18T05:17:29.055Z,6.33
2022-08-18T05:19:59.935Z,6.57
2022-08-18T05:22:28.703Z,6.90
2022-08-18T05:24:58.116Z,6.83
2022-08-18T05:27:25.013Z,6.97
2022-08-18T05:29:52.011Z,7.07
2022-08-18T05:32:36.916Z,7.70
2022-08-18T05:35:20.272Z,6.97
2022-08-18T05:38:06.994Z,7.33
2022-08-18T05:40:36.234Z,7.67
2022-08-18T05:43:06.577Z,7.50
2022-08-18T05:45:34.845Z,6.67
2022-08-18T05:48:02.098Z,7.23
2022-08-18T05:50:35.364Z,7.73
2022-08-18T05:53:14.841Z,7.00
2022-08-18T05:56:18.705Z,7.30
2022-08-18T05:58:52.888Z,6.97
2022-08-18T06:01:27.535Z,7.43
2022-08-18T06:04:06.077Z,6.53
2022-08-18T06:06:36.511Z,6.90
2022-08-18T06:09:31.822Z,7.07
2022-08-18T06:12:17.301Z,7.77
2022-08-18T06:14:44.559Z,6.50
2022-08-18T06:17:37.520Z,6.10
2022-08-18T06:20:33.282Z,6.13
2022-08-18T06:23:55.756Z,6.30
2022-08-18T06:26:57.815Z,6.60
2022-08-18T06:30:05.314Z,6.60
2022-08-18T06:32:46.909Z,6.13
2022-08-18T06:35:40.821Z,6.97
2022-08-18T06:39:02.772Z,6.87
2022-08-18T06:41:43.825Z,6.70
2022-08-18T06:44:13.008Z,6.60
2022-08-18T06:47:26.319Z,7.53
2022-08-18T06:50:03.073Z,6.73
2022-08-18T06:52:38.348Z,6.80
2022-08-18T06:55:35.057Z,6.30
2022-08-18T06:58:29.952Z,6.30
2022-08-18T07:01:02.780Z,6.53
2022-08-18T07:03:39.007Z,6.47
2022-08-18T07:06:23.771Z,6.40
2022-08-18T07:09:15.448Z,6.07
2022-08-18T07:12:04.866Z,5.70
2022-08-18T07:14:43.024Z,5.37
2022-08-18T07:17:18.692Z,4.73
2022-08-18T07:20:00.377Z,5.23
2022-08-18T07:22:30.008Z,4.60
2022-08-18T07:25:06.895Z,4.93
2022-08-18T07:27:49.991Z,5.10
2022-08-18T07:30:20.087Z,4.60
2022-08-18T07:33:04.810Z,5.27
2022-08-18T07:35:54.100Z,5.30
2022-08-18T07:38:43.032Z,4.73
2022-08-18T07:41:30.421Z,5.00
2022-08-18T07:44:23.494Z,5.20
2022-08-18T07:47:07.000Z,5.00
2022-08-18T07:49:43.014Z,5.30
2022-08-18T07:52:57.059Z,4.80
2022-08-18T07:55:36.058Z,4.77
2022-08-18T07:58:47.714Z,4.80
2022-08-18T08:01:41.187Z,4.33
2022-08-18T08:04:48.643Z,4.47
2022-08-18T08:07:25.170Z,4.33
2022-08-18T08:10:03.322Z,4.40
2022-08-18T08:12:41.809Z,4.43
2022-08-18T08:15:37.918Z,4.67
2022-08-18T08:18:47.552Z,4.90
2022-08-18T08:21:28.503Z,5.00
2022-08-18T08:24:49.567Z,5.13
2022-08-18T08:27:48.712Z,4.93
2022-08-18T08:30:21.177Z,4.60
2022-08-18T08:32:59.934Z,4.90
2022-08-18T08:35:53.390Z,5.23
2022-08-18T08:38:42.384Z,5.20
2022-08-18T08:41:36.164Z,5.13
2022-08-18T08:44:12.247Z,4.73
2022-08-18T08:46:55.394Z,4.87
2022-08-18T08:50:06.995Z,4.97
2022-08-18T08:52:48.786Z,5.47
2022-08-18T08:55:28.327Z,5.20
2022-08-18T08:58:26.385Z,4.67
2022-08-18T09:00:55.859Z,4.67
2022-08-18T09:04:02.939Z,4.93
2022-08-18T09:06:58.289Z,4.87
2022-08-18T09:09:46.338Z,4.60
2022-08-18T09:12:13.110Z,4.67
2022-08-18T09:15:03.719Z,4.97
2022-08-18T09:18:12.936Z,4.73
2022-08-18T09:20:49.588Z,4.90
2022-08-18T09:23:41.149Z,5.00
2022-08-18T09:26:39.525Z,4.60
2022-08-18T09:29:44.439Z,4.63
2022-08-18T09:32:22.864Z,4.53
2022-08-18T09:35:27.565Z,4.77
2022-08-18T09:38:26.044Z,4.73
2022-08-18T09:41:34.704Z,4.67
2022-08-18T09:44:21.621Z,4.90
2022-08-18T09:46:56.307Z,5.00
2022-08-18T09:49:27.792Z,4.43
2022-08-18T09:51:56.374Z,5.10
2022-08-18T09:54:33.464Z,4.90
2022-08-18T09:57:03.929Z,4.88
2022-08-18T09:59:35.479Z,4.55
2022-08-18T10:05:29.236Z,5.43
2022-08-18T10:08:07.762Z,5.00
2022-08-18T10:11:01.478Z,4.75
2022-08-18T10:13:59.808Z,4.90
2022-08-18T10:17:23.807Z,5.13
2022-08-18T10:20:25.842Z,5.30
2022-08-18T10:22:56.485Z,4.85
2022-08-18T10:25:39.395Z,5.13
2022-08-18T10:28:31.682Z,4.85
2022-08-18T10:31:10.354Z,4.90
2022-08-18T10:34:16.329Z,4.72
2022-08-18T10:37:01.498Z,5.25
2022-08-18T10:39:42.255Z,4.85
2022-08-18T10:42:40.092Z,5.22
2022-08-18T10:45:30.538Z,5.05
2022-08-18T10:51:30.057Z,5.25
2022-08-18T10:54:52.026Z,4.60
2022-08-18T10:58:09.606Z,4.30
2022-08-18T11:01:20.429Z,6.28
2022-08-18T11:07:19.613Z,5.90
2022-08-18T11:10:04.702Z,6.13
2022-08-18T11:13:21.735Z,6.00
2022-08-18T11:16:13.438Z,5.43
2022-08-18T11:18:43.276Z,5.85
2022-08-18T11:21:54.910Z,6.30
2022-08-18T11:24:25.392Z,6.00
2022-08-18T11:27:17.946Z,5.65
2022-08-18T11:29:46.596Z,6.38
2022-08-18T11:32:32.420Z,6.18
2022-08-18T11:35:02.066Z,6.65
2022-08-18T11:37:49.507Z,5.75
2022-08-18T11:46:33.345Z,5.32
2022-08-18T11:49:24.200Z,5.70
2022-08-18T11:51:57.615Z,5.55
2022-08-18T11:57:58.643Z,5.32
2022-08-18T12:01:03.275Z,5.57
2022-08-18T12:03:51.093Z,5.95
2022-08-18T12:06:30.510Z,5.20
2022-08-18T12:09:07.937Z,5.50
2022-08-18T12:11:48.975Z,5.07
2022-08-18T12:14:31.945Z,4.93
2022-08-18T12:19:48.359Z,5.18
2022-08-18T12:22:24.301Z,4.88
2022-08-18T12:24:52.615Z,5.30
2022-08-18T12:27:24.503Z,5.38
2022-08-18T12:29:53.726Z,4.95
2022-08-18T12:32:46.749Z,5.25
2022-08-18T12:35:15.201Z,5.05
2022-08-18T12:38:11.447Z,5.05
2022-08-18T12:40:32.549Z,5.40
2022-08-18T12:42:59.863Z,4.95
2022-08-18T12:45:28.186Z,4.78
2022-08-18T12:47:55.841Z,4.80
2022-08-18T12:53:12.502Z,4.68
2022-08-18T12:55:45.472Z,4.32
2022-08-18T12:58:13.033Z,5.03
2022-08-18T13:00:41.010Z,4.40
2022-08-18T13:03:08.698Z,4.90
2022-08-18T13:05:37.386Z,4.75
2022-08-18T13:08:09.618Z,4.55
2022-08-18T13:10:45.208Z,4.95
2022-08-18T13:13:19.032Z,4.60
2022-08-18T13:15:55.626Z,4.35
2022-08-18T13:18:27.308Z,4.55
2022-08-18T13:20:58.302Z,4.70
2022-08-18T13:23:27.345Z,4.55
2022-08-18T13:26:01.420Z,4.45
2022-08-18T13:28:35.735Z,4.50
2022-08-18T13:31:06.979Z,4.80
2022-08-18T13:33:56.573Z,4.57
2022-08-18T13:36:22.533Z,4.32
2022-08-18T13:38:54.780Z,4.55
2022-08-18T13:43:52.201Z,4.50
2022-08-18T13:46:24.432Z,4.07
2022-08-18T13:49:02.914Z,4.30
2022-08-18T13:51:30.304Z,4.05
2022-08-18T13:54:17.804Z,3.80
2022-08-18T13:56:51.849Z,4.53
2022-08-18T13:59:21.846Z,4.10
2022-08-18T14:01:53.199Z,4.28
2022-08-18T14:04:22.357Z,4.47
2022-08-18T14:06:57.317Z,4.35
2022-08-18T14:09:35.819Z,4.07
2022-08-18T14:12:22.669Z,4.43
2022-08-18T14:14:55.660Z,4.57
2022-08-18T14:17:25.435Z,4.18
2022-08-18T14:20:21.174Z,4.40
2022-08-18T14:23:23.558Z,4.30
2022-08-18T14:26:09.669Z,4.15
2022-08-18T14:28:38.294Z,4.10
2022-08-18T14:31:08.540Z,4.13
2022-08-18T14:33:51.803Z,4.15
2022-08-18T14:36:30.387Z,3.92
2022-08-18T14:38:59.334Z,4.03
2022-08-18T14:41:27.331Z,3.75
2022-08-18T14:44:12.666Z,4.25
2022-08-18T14:46:52.438Z,4.18
2022-08-18T14:49:28.089Z,3.85
2022-08-18T14:51:56.027Z,3.85
2022-08-18T14:54:24.192Z,4.38
2022-08-18T14:56:56.042Z,4.10
2022-08-18T14:59:23.575Z,4.68
2022-08-18T15:01:51.364Z,3.90
2022-08-18T15:04:19.594Z,4.22
2022-08-18T15:06:56.161Z,4.32
2022-08-18T15:09:26.903Z,4.30
2022-08-18T15:11:56.339Z,4.20
2022-08-18T15:14:32.976Z,3.97
2022-08-18T15:17:11.861Z,4.38
2022-08-18T15:19:59.707Z,4.38
2022-08-18T15:22:46.449Z,4.07
2022-08-18T15:25:34.300Z,7.32
2022-08-18T15:28:02.041Z,4.15
2022-08-18T15:30:29.049Z,4.47
2022-08-18T15:32:58.962Z,3.78
2022-08-18T15:35:25.984Z,4.22
2022-08-18T15:37:54.665Z,4.10
2022-08-18T15:40:30.816Z,4.20
2022-08-18T15:43:10.032Z,4.15
2022-08-18T15:45:56.380Z,3.88
2022-08-18T15:48:28.267Z,3.83
2022-08-18T15:50:55.754Z,4.00
2022-08-18T15:53:30.120Z,4.18
2022-08-18T15:55:57.830Z,3.70
2022-08-18T15:58:26.861Z,4.32
2022-08-18T16:00:56.480Z,4.07
2022-08-18T16:03:25.823Z,4.57
2022-08-18T16:05:55.079Z,4.65
2022-08-18T16:08:25.576Z,4.28
2022-08-18T16:10:54.436Z,4.25
2022-08-18T16:13:22.623Z,4.25
2022-08-18T16:15:50.252Z,4.25
2022-08-18T16:18:21.015Z,4.75
2022-08-18T16:20:50.606Z,4.30
2022-08-18T16:23:20.094Z,3.90
2022-08-18T16:25:46.932Z,4.60
2022-08-18T16:28:13.748Z,4.50
2022-08-18T16:30:41.898Z,4.35
2022-08-18T16:33:09.392Z,5.18
2022-08-18T16:35:37.473Z,5.38
2022-08-18T16:38:09.356Z,5.05
2022-08-18T16:40:37.429Z,4.95
2022-08-18T16:43:06.657Z,5.15
2022-08-18T16:45:36.854Z,5.82
2022-08-18T16:48:06.397Z,6.05
2022-08-18T16:50:33.469Z,6.53
2022-08-18T16:53:00.257Z,6.32
2022-08-18T16:55:27.274Z,7.20
2022-08-18T16:58:15.609Z,6.95
2022-08-18T17:01:02.198Z,6.78
2022-08-18T17:03:48.301Z,7.43
2022-08-18T17:06:19.110Z,6.70
2022-08-18T17:08:47.144Z,7.45
2022-08-18T17:11:18.406Z,7.10
2022-08-18T17:13:48.094Z,8.02
2022-08-18T17:16:18.240Z,7.38
2022-08-18T17:18:46.162Z,7.30
2022-08-18T17:21:18.422Z,7.32
2022-08-18T17:23:46.652Z,7.82
2022-08-18T17:26:28.167Z,7.65
2022-08-18T17:29:10.164Z,7.68
2022-08-18T17:31:45.956Z,7.70
2022-08-18T17:34:15.238Z,7.47
2022-08-18T17:36:53.905Z,7.53
2022-08-18T17:39:34.928Z,7.75
2022-08-18T17:42:20.333Z,7.60
2022-08-18T17:44:52.279Z,7.45
2022-08-18T17:47:26.791Z,8.10
2022-08-18T17:50:28.188Z,7.78
2022-08-18T17:53:06.163Z,7.75
2022-08-18T17:55:44.679Z,8.60
2022-08-18T17:58:40.592Z,8.20
2022-08-18T18:01:10.188Z,8.07
2022-08-18T18:03:37.984Z,8.57
2022-08-18T18:06:18.525Z,8.77
2022-08-18T18:09:19.515Z,8.50
2022-08-18T18:11:47.521Z,8.55
2022-08-18T18:14:28.189Z,8.90
2022-08-18T18:17:17.341Z,8.85
2022-08-18T18:19:49.410Z,8.88
2022-08-18T18:22:28.608Z,9.00
2022-08-18T18:25:07.778Z,8.27
2022-08-18T18:27:47.267Z,9.27
2022-08-18T18:30:16.944Z,8.65
2022-08-18T18:33:15.204Z,8.77
2022-08-18T18:35:57.819Z,9.48
2022-08-18T18:38:45.988Z,9.48
2022-08-18T18:41:12.729Z,9.27
2022-08-18T18:43:44.563Z,10.27
2022-08-18T18:46:30.207Z,9.95
2022-08-18T18:49:16.448Z,9.30
2022-08-18T18:52:49.411Z,10.10
2022-08-18T18:55:24.150Z,9.80
2022-08-18T18:57:57.319Z,10.52
2022-08-18T19:00:41.816Z,10.40
2022-08-18T19:03:14.764Z,10.07
2022-08-18T19:06:18.674Z,10.50
2022-08-18T19:09:13.620Z,9.70
2022-08-18T19:12:29.572Z,10.07
2022-08-18T19:15:08.292Z,9.60
2022-08-18T19:17:49.591Z,10.07
2022-08-18T19:20:36.861Z,9.43
2022-08-18T19:23:31.412Z,9.97
2022-08-18T19:26:08.484Z,10.03
2022-08-18T19:29:12.591Z,9.73
2022-08-18T19:31:43.008Z,9.70
2022-08-18T19:34:22.806Z,9.97
2022-08-18T19:37:18.273Z,10.10
2022-08-18T19:40:09.848Z,9.70
2022-08-18T19:42:42.994Z,9.40
2022-08-18T19:45:29.559Z,9.53
2022-08-18T19:48:21.854Z,9.70
2022-08-18T19:51:17.634Z,9.53
2022-08-18T19:54:09.253Z,9.03
2022-08-18T19:57:09.390Z,9.27
2022-08-18T20:00:06.011Z,9.97
2022-08-18T20:03:12.409Z,9.97
2022-08-18T20:06:34.382Z,9.60
2022-08-18T20:09:44.424Z,9.40
2022-08-18T20:12:37.973Z,8.50
2022-08-18T20:15:25.034Z,9.13
2022-08-18T20:17:57.361Z,9.47
2022-08-18T20:20:34.819Z,9.37
2022-08-18T20:23:34.640Z,9.20
2022-08-18T20:26:01.633Z,9.43
2022-08-18T20:28:39.597Z,9.23
2022-08-18T20:31:16.414Z,9.43
2022-08-18T20:34:14.211Z,9.33
2022-08-18T20:36:43.987Z,9.47
2022-08-18T20:39:54.818Z,9.53
2022-08-18T20:42:21.597Z,9.07
2022-08-18T20:44:48.296Z,8.47
2022-08-18T20:47:34.725Z,9.00
2022-08-18T20:50:34.821Z,8.80
2022-08-18T20:53:30.484Z,8.27
2022-08-18T20:56:52.516Z,8.63
2022-08-18T20:59:35.712Z,8.37
2022-08-18T21:02:31.656Z,8.80
2022-08-18T21:05:00.692Z,9.07
2022-08-18T21:08:02.167Z,8.17
2022-08-18T21:10:33.032Z,7.90
2022-08-18T21:13:04.103Z,8.43
2022-08-18T21:15:38.285Z,8.77
2022-08-18T21:18:19.444Z,8.00
2022-08-18T21:20:53.425Z,8.43
2022-08-18T21:23:37.603Z,8.47
2022-08-18T21:26:09.015Z,8.00
2022-08-18T21:28:41.013Z,8.27
2022-08-18T21:31:44.382Z,8.53
2022-08-18T21:34:34.726Z,8.00
2022-08-18T21:37:10.325Z,7.87
2022-08-18T21:39:57.948Z,7.67
2022-08-18T21:42:40.870Z,7.43
2022-08-18T21:45:21.829Z,8.03
2022-08-18T21:48:05.200Z,7.63
2022-08-18T21:50:35.296Z,8.03
2022-08-18T21:53:17.958Z,7.77
2022-08-18T21:55:51.405Z,8.30
2022-08-18T21:58:45.164Z,7.83
2022-08-18T22:01:29.884Z,7.23
2022-08-18T22:04:33.542Z,8.07
2022-08-18T22:07:02.380Z,6.93
2022-08-18T22:09:54.276Z,7.57
2022-08-18T22:12:53.688Z,7.80
2022-08-18T22:15:46.808Z,7.77
2022-08-18T22:18:16.495Z,8.03
2022-08-18T22:20:52.084Z,7.20
2022-08-18T22:23:50.707Z,7.77
2022-08-18T22:26:17.442Z,7.70
2022-08-18T22:29:33.902Z,8.43
2022-08-18T22:32:03.370Z,7.90
2022-08-18T22:34:34.252Z,7.60
2022-08-18T22:37:07.606Z,8.30
2022-08-18T22:39:52.890Z,7.97
2022-08-18T22:42:27.359Z,8.30
2022-08-18T22:44:56.371Z,8.40
2022-08-18T22:47:25.823Z,8.00
2022-08-18T22:49:52.685Z,7.90
2022-08-18T22:52:35.803Z,8.20
2022-08-18T22:55:07.973Z,8.87
2022-08-18T22:57:37.380Z,8.00
2022-08-18T23:00:14.382Z,8.40
2022-08-18T23:02:42.232Z,7.83
2022-08-18T23:05:10.391Z,8.43
2022-08-18T23:07:37.348Z,8.57
2022-08-18T23:10:08.155Z,8.57
2022-08-18T23:12:42.978Z,8.03
2022-08-18T23:15:13.786Z,8.13
2022-08-18T23:17:43.020Z,8.40
2022-08-18T23:20:17.611Z,8.10
2022-08-18T23:22:46.581Z,8.03
2022-08-18T23:25:14.100Z,8.17
2022-08-18T23:27:42.442Z,8.30
2022-08-18T23:30:10.566Z,8.17
2022-08-18T23:32:37.399Z,8.47
2022-08-18T23:35:04.984Z,8.10
2022-08-18T23:37:31.904Z,8.90
2022-08-18T23:39:59.454Z,8.57
2022-08-18T23:42:26.538Z,8.93
2022-08-18T23:44:53.361Z,8.60
2022-08-18T23:47:20.678Z,8.33
2022-08-18T23:49:47.920Z,8.03
2022-08-18T23:52:15.056Z,8.43
2022-08-18T23:54:41.895Z,8.93
2022-08-18T23:57:08.786Z,8.67
2022-08-18T23:59:35.600Z,8.63
